sensor_id;sensor_type;location;lat;lon;timestamp;P1;durP1;ratioP1;P2;durP2;ratioP2
20972;SDS011;10645;52.370;13.314;2022-10-31T00:02:25;1.15;;;1.05;;
20972;SDS011;10645;52.370;13.314;2022-10-31T00:04:51;2.25;;;2.03;;
20972;SDS011;10645;52.370;13.314;2022-10-31T00:07:17;1.80;;;1.67;;
20972;SDS011;10645;52.370;13.314;2022-10-31T00:09:43;2.28;;;2.08;;
20972;SDS011;10645;52.370;13.314;2022-10-31T00:12:09;1.25;;;1.15;;
20972;SDS011;10645;52.370;13.314;2022-10-31T00:14:35;2.53;;;2.33;;
20972;SDS011;10645;52.370;13.314;2022-10-31T00:17:01;3.15;;;2.92;;
20972;SDS011;10645;52.370;13.314;2022-10-31T00:19:27;4.10;;;3.67;;
20972;SDS011;10645;52.370;13.314;2022-10-31T00:21:54;3.30;;;2.53;;
20972;SDS011;10645;52.370;13.314;2022-10-31T00:24:20;3.90;;;2.88;;
20972;SDS011;10645;52.370;13.314;2022-10-31T00:26:46;5.32;;;2.80;;
20972;SDS011;10645;52.370;13.314;2022-10-31T00:29:12;4.38;;;2.45;;
20972;SDS011;10645;52.370;13.314;2022-10-31T00:31:38;5.40;;;4.13;;
20972;SDS011;10645;52.370;13.314;2022-10-31T00:34:04;2.63;;;2.25;;
20972;SDS011;10645;52.370;13.314;2022-10-31T00:36:30;3.13;;;2.58;;
20972;SDS011;10645;52.370;13.314;2022-10-31T00:38:57;7.60;;;2.65;;
20972;SDS011;10645;52.370;13.314;2022-10-31T00:41:24;4.95;;;2.72;;
20972;SDS011;10645;52.370;13.314;2022-10-31T00:43:50;3.08;;;2.85;;
20972;SDS011;10645;52.370;13.314;2022-10-31T00:46:16;2.80;;;2.30;;
20972;SDS011;10645;52.370;13.314;2022-10-31T00:48:42;2.88;;;2.67;;
20972;SDS011;10645;52.370;13.314;2022-10-31T00:51:08;4.07;;;3.28;;
20972;SDS011;10645;52.370;13.314;2022-10-31T00:53:35;3.90;;;3.55;;
20972;SDS011;10645;52.370;13.314;2022-10-31T00:56:01;10.80;;;4.82;;
20972;SDS011;10645;52.370;13.314;2022-10-31T00:58:28;3.25;;;2.63;;
20972;SDS011;10645;52.370;13.314;2022-10-31T01:00:55;4.78;;;3.53;;
20972;SDS011;10645;52.370;13.314;2022-10-31T01:03:25;3.30;;;2.97;;
20972;SDS011;10645;52.370;13.314;2022-10-31T01:06:00;3.15;;;2.85;;
20972;SDS011;10645;52.370;13.314;2022-10-31T01:08:32;3.45;;;2.45;;
20972;SDS011;10645;52.370;13.314;2022-10-31T01:10:59;5.65;;;3.88;;
20972;SDS011;10645;52.370;13.314;2022-10-31T01:13:34;2.85;;;2.65;;
20972;SDS011;10645;52.370;13.314;2022-10-31T01:16:01;3.72;;;2.83;;
20972;SDS011;10645;52.370;13.314;2022-10-31T01:18:28;3.33;;;3.00;;
20972;SDS011;10645;52.370;13.314;2022-10-31T01:21:02;2.15;;;2.05;;
20972;SDS011;10645;52.370;13.314;2022-10-31T01:23:39;5.85;;;3.80;;
20972;SDS011;10645;52.370;13.314;2022-10-31T01:26:06;2.85;;;2.45;;
20972;SDS011;10645;52.370;13.314;2022-10-31T01:28:43;3.90;;;3.47;;
20972;SDS011;10645;52.370;13.314;2022-10-31T01:31:12;6.18;;;3.28;;
20972;SDS011;10645;52.370;13.314;2022-10-31T01:33:39;2.47;;;2.28;;
20972;SDS011;10645;52.370;13.314;2022-10-31T01:36:38;4.65;;;3.38;;
20972;SDS011;10645;52.370;13.314;2022-10-31T01:39:03;4.97;;;3.45;;
20972;SDS011;10645;52.370;13.314;2022-10-31T01:41:32;2.63;;;2.42;;
20972;SDS011;10645;52.370;13.314;2022-10-31T01:44:46;4.10;;;3.10;;
20972;SDS011;10645;52.370;13.314;2022-10-31T01:46:50;3.28;;;3.00;;
20972;SDS011;10645;52.370;13.314;2022-10-31T01:49:34;5.82;;;5.32;;
20972;SDS011;10645;52.370;13.314;2022-10-31T01:52:06;3.33;;;2.70;;
20972;SDS011;10645;52.370;13.314;2022-10-31T01:54:38;3.50;;;3.03;;
20972;SDS011;10645;52.370;13.314;2022-10-31T01:57:08;6.43;;;3.28;;
20972;SDS011;10645;52.370;13.314;2022-10-31T01:59:39;2.95;;;2.67;;
20972;SDS011;10645;52.370;13.314;2022-10-31T02:02:08;4.25;;;3.42;;
20972;SDS011;10645;52.370;13.314;2022-10-31T02:04:35;3.90;;;3.58;;
20972;SDS011;10645;52.370;13.314;2022-10-31T02:07:07;6.68;;;3.65;;
20972;SDS011;10645;52.370;13.314;2022-10-31T02:10:02;3.20;;;2.92;;
20972;SDS011;10645;52.370;13.314;2022-10-31T02:12:29;7.78;;;3.50;;
20972;SDS011;10645;52.370;13.314;2022-10-31T02:14:59;3.25;;;2.72;;
20972;SDS011;10645;52.370;13.314;2022-10-31T02:17:26;4.93;;;3.13;;
20972;SDS011;10645;52.370;13.314;2022-10-31T02:22:40;5.60;;;4.88;;
20972;SDS011;10645;52.370;13.314;2022-10-31T02:25:42;3.15;;;2.80;;
20972;SDS011;10645;52.370;13.314;2022-10-31T02:28:40;2.75;;;2.55;;
20972;SDS011;10645;52.370;13.314;2022-10-31T02:31:45;3.42;;;2.67;;
20972;SDS011;10645;52.370;13.314;2022-10-31T02:37:09;4.22;;;3.03;;
20972;SDS011;10645;52.370;13.314;2022-10-31T02:43:06;5.50;;;2.38;;
20972;SDS011;10645;52.370;13.314;2022-10-31T02:45:43;2.53;;;2.33;;
20972;SDS011;10645;52.370;13.314;2022-10-31T02:48:18;3.28;;;2.97;;
20972;SDS011;10645;52.370;13.314;2022-10-31T02:50:49;2.65;;;2.03;;
20972;SDS011;10645;52.370;13.314;2022-10-31T02:53:20;3.30;;;3.00;;
20972;SDS011;10645;52.370;13.314;2022-10-31T02:55:49;4.00;;;3.25;;
20972;SDS011;10645;52.370;13.314;2022-10-31T02:58:28;4.47;;;4.03;;
20972;SDS011;10645;52.370;13.314;2022-10-31T03:01:04;3.63;;;3.22;;
20972;SDS011;10645;52.370;13.314;2022-10-31T03:09:21;3.03;;;2.72;;
20972;SDS011;10645;52.370;13.314;2022-10-31T03:11:58;2.63;;;2.45;;
20972;SDS011;10645;52.370;13.314;2022-10-31T03:17:38;3.35;;;3.05;;
20972;SDS011;10645;52.370;13.314;2022-10-31T03:20:16;2.97;;;2.78;;
20972;SDS011;10645;52.370;13.314;2022-10-31T03:22:49;5.53;;;3.53;;
20972;SDS011;10645;52.370;13.314;2022-10-31T03:25:16;5.35;;;3.10;;
20972;SDS011;10645;52.370;13.314;2022-10-31T03:27:43;5.05;;;3.22;;
20972;SDS011;10645;52.370;13.314;2022-10-31T03:30:11;2.50;;;2.33;;
20972;SDS011;10645;52.370;13.314;2022-10-31T03:32:56;3.35;;;3.08;;
20972;SDS011;10645;52.370;13.314;2022-10-31T03:35:25;3.65;;;2.85;;
20972;SDS011;10645;52.370;13.314;2022-10-31T03:37:54;3.67;;;3.30;;
20972;SDS011;10645;52.370;13.314;2022-10-31T03:40:21;5.20;;;4.13;;
20972;SDS011;10645;52.370;13.314;2022-10-31T03:42:54;4.40;;;1.98;;
20972;SDS011;10645;52.370;13.314;2022-10-31T03:45:27;4.18;;;3.30;;
20972;SDS011;10645;52.370;13.314;2022-10-31T03:47:56;3.67;;;3.38;;
20972;SDS011;10645;52.370;13.314;2022-10-31T03:50:25;1.85;;;1.75;;
20972;SDS011;10645;52.370;13.314;2022-10-31T03:53:06;2.55;;;2.35;;
20972;SDS011;10645;52.370;13.314;2022-10-31T03:55:40;3.30;;;3.00;;
20972;SDS011;10645;52.370;13.314;2022-10-31T03:58:21;3.22;;;2.85;;
20972;SDS011;10645;52.370;13.314;2022-10-31T04:00:52;2.92;;;2.53;;
20972;SDS011;10645;52.370;13.314;2022-10-31T04:03:28;2.17;;;1.25;;
20972;SDS011;10645;52.370;13.314;2022-10-31T04:06:01;1.83;;;1.73;;
20972;SDS011;10645;52.370;13.314;2022-10-31T04:08:32;2.38;;;1.88;;
20972;SDS011;10645;52.370;13.314;2022-10-31T04:11:08;2.60;;;2.42;;
20972;SDS011;10645;52.370;13.314;2022-10-31T04:13:40;1.58;;;1.45;;
20972;SDS011;10645;52.370;13.314;2022-10-31T04:16:12;3.97;;;3.63;;
20972;SDS011;10645;52.370;13.314;2022-10-31T04:18:40;2.85;;;2.45;;
20972;SDS011;10645;52.370;13.314;2022-10-31T04:21:07;5.32;;;4.32;;
20972;SDS011;10645;52.370;13.314;2022-10-31T04:23:34;3.60;;;2.88;;
20972;SDS011;10645;52.370;13.314;2022-10-31T04:26:12;2.38;;;2.10;;
20972;SDS011;10645;52.370;13.314;2022-10-31T04:28:38;3.30;;;3.00;;
20972;SDS011;10645;52.370;13.314;2022-10-31T04:31:04;2.63;;;2.38;;
20972;SDS011;10645;52.370;13.314;2022-10-31T04:33:33;3.78;;;3.28;;
20972;SDS011;10645;52.370;13.314;2022-10-31T04:36:01;9.40;;;5.97;;
20972;SDS011;10645;52.370;13.314;2022-10-31T04:38:27;48.67;;;33.22;;
20972;SDS011;10645;52.370;13.314;2022-10-31T04:40:53;100.80;;;58.50;;
20972;SDS011;10645;52.370;13.314;2022-10-31T04:43:39;54.92;;;37.28;;
20972;SDS011;10645;52.370;13.314;2022-10-31T04:46:05;31.42;;;16.90;;
20972;SDS011;10645;52.370;13.314;2022-10-31T04:48:31;10.95;;;7.18;;
20972;SDS011;10645;52.370;13.314;2022-10-31T04:50:58;5.30;;;4.90;;
20972;SDS011;10645;52.370;13.314;2022-10-31T04:53:26;3.08;;;2.70;;
20972;SDS011;10645;52.370;13.314;2022-10-31T04:56:15;3.78;;;3.47;;
20972;SDS011;10645;52.370;13.314;2022-10-31T04:58:44;2.88;;;2.67;;
20972;SDS011;10645;52.370;13.314;2022-10-31T05:01:11;5.40;;;2.75;;
20972;SDS011;10645;52.370;13.314;2022-10-31T05:03:38;2.30;;;2.17;;
20972;SDS011;10645;52.370;13.314;2022-10-31T05:06:05;3.30;;;3.00;;
20972;SDS011;10645;52.370;13.314;2022-10-31T05:08:31;2.03;;;1.85;;
20972;SDS011;10645;52.370;13.314;2022-10-31T05:10:59;1.48;;;1.48;;
20972;SDS011;10645;52.370;13.314;2022-10-31T05:13:28;3.25;;;2.97;;
20972;SDS011;10645;52.370;13.314;2022-10-31T05:16:13;3.13;;;2.92;;
20972;SDS011;10645;52.370;13.314;2022-10-31T05:19:14;1.88;;;1.60;;
20972;SDS011;10645;52.370;13.314;2022-10-31T05:22:18;2.72;;;2.45;;
20972;SDS011;10645;52.370;13.314;2022-10-31T05:24:44;6.38;;;2.40;;
20972;SDS011;10645;52.370;13.314;2022-10-31T05:27:10;2.70;;;2.42;;
20972;SDS011;10645;52.370;13.314;2022-10-31T05:29:36;3.38;;;3.17;;
20972;SDS011;10645;52.370;13.314;2022-10-31T05:32:02;3.83;;;3.50;;
20972;SDS011;10645;52.370;13.314;2022-10-31T05:34:51;2.08;;;1.85;;
20972;SDS011;10645;52.370;13.314;2022-10-31T05:37:45;2.78;;;1.95;;
20972;SDS011;10645;52.370;13.314;2022-10-31T05:40:12;7.40;;;2.60;;
20972;SDS011;10645;52.370;13.314;2022-10-31T05:42:40;5.82;;;2.85;;
20972;SDS011;10645;52.370;13.314;2022-10-31T05:45:07;2.25;;;2.08;;
20972;SDS011;10645;52.370;13.314;2022-10-31T05:47:54;2.65;;;2.17;;
20972;SDS011;10645;52.370;13.314;2022-10-31T05:50:56;2.15;;;1.88;;
20972;SDS011;10645;52.370;13.314;2022-10-31T05:53:24;2.05;;;1.88;;
20972;SDS011;10645;52.370;13.314;2022-10-31T05:55:50;1.77;;;1.67;;
20972;SDS011;10645;52.370;13.314;2022-10-31T05:58:18;2.90;;;2.38;;
20972;SDS011;10645;52.370;13.314;2022-10-31T06:00:50;2.05;;;1.85;;
20972;SDS011;10645;52.370;13.314;2022-10-31T06:03:16;2.13;;;2.00;;
20972;SDS011;10645;52.370;13.314;2022-10-31T06:05:47;3.03;;;2.83;;
20972;SDS011;10645;52.370;13.314;2022-10-31T06:08:13;2.65;;;2.45;;
20972;SDS011;10645;52.370;13.314;2022-10-31T06:10:40;3.20;;;2.45;;
20972;SDS011;10645;52.370;13.314;2022-10-31T06:13:06;2.53;;;2.20;;
20972;SDS011;10645;52.370;13.314;2022-10-31T06:15:41;2.45;;;2.25;;
20972;SDS011;10645;52.370;13.314;2022-10-31T06:18:07;1.92;;;1.65;;
20972;SDS011;10645;52.370;13.314;2022-10-31T06:20:46;1.60;;;1.30;;
20972;SDS011;10645;52.370;13.314;2022-10-31T06:23:12;3.10;;;2.40;;
20972;SDS011;10645;52.370;13.314;2022-10-31T06:25:40;2.40;;;2.20;;
20972;SDS011;10645;52.370;13.314;2022-10-31T06:28:07;3.63;;;2.47;;
20972;SDS011;10645;52.370;13.314;2022-10-31T06:30:43;1.92;;;1.80;;
20972;SDS011;10645;52.370;13.314;2022-10-31T06:33:10;3.00;;;1.77;;
20972;SDS011;10645;52.370;13.314;2022-10-31T06:35:45;1.48;;;1.42;;
20972;SDS011;10645;52.370;13.314;2022-10-31T06:38:12;1.20;;;1.17;;
20972;SDS011;10645;52.370;13.314;2022-10-31T06:40:41;2.95;;;2.30;;
20972;SDS011;10645;52.370;13.314;2022-10-31T06:43:25;2.55;;;2.08;;
20972;SDS011;10645;52.370;13.314;2022-10-31T06:46:06;2.70;;;2.45;;
20972;SDS011;10645;52.370;13.314;2022-10-31T06:48:40;2.20;;;2.08;;
20972;SDS011;10645;52.370;13.314;2022-10-31T06:51:26;2.75;;;2.45;;
20972;SDS011;10645;52.370;13.314;2022-10-31T06:53:53;2.75;;;1.92;;
20972;SDS011;10645;52.370;13.314;2022-10-31T06:56:19;2.97;;;2.00;;
20972;SDS011;10645;52.370;13.314;2022-10-31T06:58:49;2.45;;;2.25;;
20972;SDS011;10645;52.370;13.314;2022-10-31T07:01:19;4.65;;;4.25;;
20972;SDS011;10645;52.370;13.314;2022-10-31T07:03:47;2.42;;;2.22;;
20972;SDS011;10645;52.370;13.314;2022-10-31T07:06:13;3.00;;;2.80;;
20972;SDS011;10645;52.370;13.314;2022-10-31T07:08:39;3.92;;;3.33;;
20972;SDS011;10645;52.370;13.314;2022-10-31T07:11:06;4.28;;;3.88;;
20972;SDS011;10645;52.370;13.314;2022-10-31T07:13:33;10.45;;;4.10;;
20972;SDS011;10645;52.370;13.314;2022-10-31T07:16:07;9.35;;;6.53;;
20972;SDS011;10645;52.370;13.314;2022-10-31T07:18:35;5.82;;;5.30;;
20972;SDS011;10645;52.370;13.314;2022-10-31T07:21:01;10.75;;;6.47;;
20972;SDS011;10645;52.370;13.314;2022-10-31T07:23:28;6.18;;;4.63;;
20972;SDS011;10645;52.370;13.314;2022-10-31T07:26:20;7.22;;;5.97;;
20972;SDS011;10645;52.370;13.314;2022-10-31T07:28:47;7.25;;;5.05;;
20972;SDS011;10645;52.370;13.314;2022-10-31T07:31:14;10.15;;;5.22;;
20972;SDS011;10645;52.370;13.314;2022-10-31T07:33:40;8.27;;;6.68;;
20972;SDS011;10645;52.370;13.314;2022-10-31T07:36:44;6.50;;;5.45;;
20972;SDS011;10645;52.370;13.314;2022-10-31T07:39:12;7.47;;;5.45;;
20972;SDS011;10645;52.370;13.314;2022-10-31T07:41:38;13.95;;;7.82;;
20972;SDS011;10645;52.370;13.314;2022-10-31T07:44:04;18.13;;;9.63;;
20972;SDS011;10645;52.370;13.314;2022-10-31T07:46:48;6.72;;;4.63;;
20972;SDS011;10645;52.370;13.314;2022-10-31T07:49:33;9.93;;;6.25;;
20972;SDS011;10645;52.370;13.314;2022-10-31T07:52:18;8.77;;;6.32;;
20972;SDS011;10645;52.370;13.314;2022-10-31T07:55:07;5.25;;;4.70;;
20972;SDS011;10645;52.370;13.314;2022-10-31T07:57:35;4.57;;;4.20;;
20972;SDS011;10645;52.370;13.314;2022-10-31T08:00:05;8.55;;;5.20;;
20972;SDS011;10645;52.370;13.314;2022-10-31T08:02:40;14.20;;;6.03;;
20972;SDS011;10645;52.370;13.314;2022-10-31T08:05:29;8.30;;;6.70;;
20972;SDS011;10645;52.370;13.314;2022-10-31T08:08:15;6.50;;;4.93;;
20972;SDS011;10645;52.370;13.314;2022-10-31T08:10:42;10.02;;;6.43;;
20972;SDS011;10645;52.370;13.314;2022-10-31T08:13:11;5.75;;;5.18;;
20972;SDS011;10645;52.370;13.314;2022-10-31T08:15:42;5.97;;;5.22;;
20972;SDS011;10645;52.370;13.314;2022-10-31T08:18:10;6.35;;;4.55;;
20972;SDS011;10645;52.370;13.314;2022-10-31T08:20:38;10.50;;;5.80;;
20972;SDS011;10645;52.370;13.314;2022-10-31T08:23:05;9.90;;;7.32;;
20972;SDS011;10645;52.370;13.314;2022-10-31T08:25:34;4.93;;;3.33;;
20972;SDS011;10645;52.370;13.314;2022-10-31T08:28:01;9.50;;;5.53;;
20972;SDS011;10645;52.370;13.314;2022-10-31T08:30:29;7.63;;;5.82;;
20972;SDS011;10645;52.370;13.314;2022-10-31T08:33:22;7.32;;;5.75;;
20972;SDS011;10645;52.370;13.314;2022-10-31T08:36:07;7.30;;;5.22;;
20972;SDS011;10645;52.370;13.314;2022-10-31T08:38:57;5.03;;;4.53;;
20972;SDS011;10645;52.370;13.314;2022-10-31T08:41:23;9.10;;;4.43;;
20972;SDS011;10645;52.370;13.314;2022-10-31T08:43:49;7.22;;;6.32;;
20972;SDS011;10645;52.370;13.314;2022-10-31T08:46:15;6.75;;;5.13;;
20972;SDS011;10645;52.370;13.314;2022-10-31T08:48:43;8.45;;;5.47;;
20972;SDS011;10645;52.370;13.314;2022-10-31T08:51:09;6.10;;;5.25;;
20972;SDS011;10645;52.370;13.314;2022-10-31T08:53:36;9.27;;;6.95;;
20972;SDS011;10645;52.370;13.314;2022-10-31T08:56:21;7.53;;;5.18;;
20972;SDS011;10645;52.370;13.314;2022-10-31T08:58:48;4.75;;;4.35;;
20972;SDS011;10645;52.370;13.314;2022-10-31T09:01:14;7.80;;;4.43;;
20972;SDS011;10645;52.370;13.314;2022-10-31T09:03:42;10.98;;;5.22;;
20972;SDS011;10645;52.370;13.314;2022-10-31T09:06:09;17.80;;;6.03;;
20972;SDS011;10645;52.370;13.314;2022-10-31T09:08:36;10.90;;;6.07;;
20972;SDS011;10645;52.370;13.314;2022-10-31T09:11:03;10.68;;;5.63;;
20972;SDS011;10645;52.370;13.314;2022-10-31T09:13:49;10.43;;;5.63;;
20972;SDS011;10645;52.370;13.314;2022-10-31T09:16:35;15.73;;;9.23;;
20972;SDS011;10645;52.370;13.314;2022-10-31T09:19:01;9.80;;;7.55;;
20972;SDS011;10645;52.370;13.314;2022-10-31T09:21:27;7.88;;;5.22;;
20972;SDS011;10645;52.370;13.314;2022-10-31T09:23:53;12.15;;;5.20;;
20972;SDS011;10645;52.370;13.314;2022-10-31T09:26:19;8.48;;;5.38;;
20972;SDS011;10645;52.370;13.314;2022-10-31T09:28:55;12.70;;;6.07;;
20972;SDS011;10645;52.370;13.314;2022-10-31T09:31:23;8.95;;;6.50;;
20972;SDS011;10645;52.370;13.314;2022-10-31T09:33:54;10.02;;;6.00;;
20972;SDS011;10645;52.370;13.314;2022-10-31T09:36:43;6.30;;;5.72;;
20972;SDS011;10645;52.370;13.314;2022-10-31T09:39:19;8.73;;;5.43;;
20972;SDS011;10645;52.370;13.314;2022-10-31T09:41:57;6.70;;;5.90;;
20972;SDS011;10645;52.370;13.314;2022-10-31T09:44:41;12.57;;;7.30;;
20972;SDS011;10645;52.370;13.314;2022-10-31T09:47:37;6.13;;;5.10;;
20972;SDS011;10645;52.370;13.314;2022-10-31T09:50:36;10.55;;;7.63;;
20972;SDS011;10645;52.370;13.314;2022-10-31T09:53:42;13.15;;;7.55;;
20972;SDS011;10645;52.370;13.314;2022-10-31T09:56:18;9.77;;;6.15;;
20972;SDS011;10645;52.370;13.314;2022-10-31T09:58:58;10.25;;;5.43;;
20972;SDS011;10645;52.370;13.314;2022-10-31T10:01:34;11.88;;;7.60;;
20972;SDS011;10645;52.370;13.314;2022-10-31T10:07:27;12.00;;;5.05;;
20972;SDS011;10645;52.370;13.314;2022-10-31T10:10:45;5.97;;;5.35;;
20972;SDS011;10645;52.370;13.314;2022-10-31T10:16:25;11.75;;;5.28;;
20972;SDS011;10645;52.370;13.314;2022-10-31T10:19:15;10.75;;;5.93;;
20972;SDS011;10645;52.370;13.314;2022-10-31T10:24:51;9.88;;;6.53;;
20972;SDS011;10645;52.370;13.314;2022-10-31T10:27:39;9.55;;;6.32;;
20972;SDS011;10645;52.370;13.314;2022-10-31T10:30:19;9.32;;;6.55;;
20972;SDS011;10645;52.370;13.314;2022-10-31T10:32:48;13.13;;;6.47;;
20972;SDS011;10645;52.370;13.314;2022-10-31T10:35:19;14.90;;;7.95;;
20972;SDS011;10645;52.370;13.314;2022-10-31T10:37:56;5.55;;;4.97;;
20972;SDS011;10645;52.370;13.314;2022-10-31T10:40:26;6.95;;;6.20;;
20972;SDS011;10645;52.370;13.314;2022-10-31T10:49:14;10.07;;;8.00;;
20972;SDS011;10645;52.370;13.314;2022-10-31T10:51:50;15.15;;;7.82;;
20972;SDS011;10645;52.370;13.314;2022-10-31T10:54:38;12.55;;;8.13;;
20972;SDS011;10645;52.370;13.314;2022-10-31T10:57:22;24.13;;;6.78;;
20972;SDS011;10645;52.370;13.314;2022-10-31T11:00:02;12.27;;;8.15;;
20972;SDS011;10645;52.370;13.314;2022-10-31T11:02:41;9.38;;;6.82;;
20972;SDS011;10645;52.370;13.314;2022-10-31T11:05:12;17.83;;;8.90;;
20972;SDS011;10645;52.370;13.314;2022-10-31T11:07:45;18.25;;;5.55;;
20972;SDS011;10645;52.370;13.314;2022-10-31T11:10:12;9.75;;;6.00;;
20972;SDS011;10645;52.370;13.314;2022-10-31T11:12:40;9.48;;;6.53;;
20972;SDS011;10645;52.370;13.314;2022-10-31T11:15:18;5.65;;;4.90;;
20972;SDS011;10645;52.370;13.314;2022-10-31T11:17:50;9.20;;;7.25;;
20972;SDS011;10645;52.370;13.314;2022-10-31T11:22:46;10.27;;;7.40;;
20972;SDS011;10645;52.370;13.314;2022-10-31T11:25:32;7.78;;;5.85;;
20972;SDS011;10645;52.370;13.314;2022-10-31T11:28:02;9.35;;;6.63;;
20972;SDS011;10645;52.370;13.314;2022-10-31T11:30:30;16.45;;;8.40;;
20972;SDS011;10645;52.370;13.314;2022-10-31T11:33:01;11.13;;;6.88;;
20972;SDS011;10645;52.370;13.314;2022-10-31T11:35:29;20.00;;;8.27;;
20972;SDS011;10645;52.370;13.314;2022-10-31T11:38:04;10.18;;;8.00;;
20972;SDS011;10645;52.370;13.314;2022-10-31T11:40:31;6.95;;;5.10;;
20972;SDS011;10645;52.370;13.314;2022-10-31T11:42:57;8.32;;;7.32;;
20972;SDS011;10645;52.370;13.314;2022-10-31T11:45:31;8.23;;;5.55;;
20972;SDS011;10645;52.370;13.314;2022-10-31T11:47:59;8.65;;;5.97;;
20972;SDS011;10645;52.370;13.314;2022-10-31T11:50:37;11.00;;;7.90;;
20972;SDS011;10645;52.370;13.314;2022-10-31T11:53:12;10.43;;;6.15;;
20972;SDS011;10645;52.370;13.314;2022-10-31T11:55:43;13.23;;;6.85;;
20972;SDS011;10645;52.370;13.314;2022-10-31T12:01:08;9.88;;;5.65;;
20972;SDS011;10645;52.370;13.314;2022-10-31T12:06:38;11.10;;;6.15;;
20972;SDS011;10645;52.370;13.314;2022-10-31T12:09:13;17.73;;;6.45;;
20972;SDS011;10645;52.370;13.314;2022-10-31T12:11:49;11.93;;;6.85;;
20972;SDS011;10645;52.370;13.314;2022-10-31T12:14:27;7.70;;;6.40;;
20972;SDS011;10645;52.370;13.314;2022-10-31T12:17:23;7.13;;;6.53;;
20972;SDS011;10645;52.370;13.314;2022-10-31T12:20:54;8.50;;;6.78;;
20972;SDS011;10645;52.370;13.314;2022-10-31T12:23:15;10.35;;;6.45;;
20972;SDS011;10645;52.370;13.314;2022-10-31T12:25:55;7.43;;;5.32;;
20972;SDS011;10645;52.370;13.314;2022-10-31T12:28:54;13.70;;;7.07;;
20972;SDS011;10645;52.370;13.314;2022-10-31T12:40:48;10.80;;;6.22;;
20972;SDS011;10645;52.370;13.314;2022-10-31T12:43:45;9.45;;;5.72;;
20972;SDS011;10645;52.370;13.314;2022-10-31T12:46:25;7.13;;;5.65;;
20972;SDS011;10645;52.370;13.314;2022-10-31T12:49:20;6.95;;;6.18;;
20972;SDS011;10645;52.370;13.314;2022-10-31T12:52:14;7.65;;;4.85;;
20972;SDS011;10645;52.370;13.314;2022-10-31T12:55:25;7.25;;;5.45;;
20972;SDS011;10645;52.370;13.314;2022-10-31T12:58:02;7.75;;;5.38;;
20972;SDS011;10645;52.370;13.314;2022-10-31T13:00:34;9.57;;;5.95;;
20972;SDS011;10645;52.370;13.314;2022-10-31T13:03:14;6.35;;;4.82;;
20972;SDS011;10645;52.370;13.314;2022-10-31T13:06:05;13.23;;;7.13;;
20972;SDS011;10645;52.370;13.314;2022-10-31T13:08:39;13.25;;;8.45;;
20972;SDS011;10645;52.370;13.314;2022-10-31T13:11:14;7.60;;;6.05;;
20972;SDS011;10645;52.370;13.314;2022-10-31T13:13:48;6.03;;;5.45;;
20972;SDS011;10645;52.370;13.314;2022-10-31T13:16:37;5.40;;;4.88;;
20972;SDS011;10645;52.370;13.314;2022-10-31T13:19:16;5.55;;;4.22;;
20972;SDS011;10645;52.370;13.314;2022-10-31T13:27:24;9.05;;;5.07;;
20972;SDS011;10645;52.370;13.314;2022-10-31T13:32:24;7.13;;;5.07;;
20972;SDS011;10645;52.370;13.314;2022-10-31T13:34:54;8.75;;;5.90;;
20972;SDS011;10645;52.370;13.314;2022-10-31T13:37:29;5.30;;;3.85;;
20972;SDS011;10645;52.370;13.314;2022-10-31T13:40:05;4.20;;;3.90;;
20972;SDS011;10645;52.370;13.314;2022-10-31T13:42:57;7.22;;;4.80;;
20972;SDS011;10645;52.370;13.314;2022-10-31T13:45:25;9.20;;;4.57;;
20972;SDS011;10645;52.370;13.314;2022-10-31T13:47:55;7.25;;;5.40;;
20972;SDS011;10645;52.370;13.314;2022-10-31T13:50:25;4.50;;;4.05;;
20972;SDS011;10645;52.370;13.314;2022-10-31T13:53:19;7.88;;;5.68;;
20972;SDS011;10645;52.370;13.314;2022-10-31T13:55:47;5.78;;;3.47;;
20972;SDS011;10645;52.370;13.314;2022-10-31T13:58:25;7.32;;;5.15;;
20972;SDS011;10645;52.370;13.314;2022-10-31T14:03:40;12.02;;;3.92;;
20972;SDS011;10645;52.370;13.314;2022-10-31T14:06:08;4.43;;;3.15;;
20972;SDS011;10645;52.370;13.314;2022-10-31T14:08:40;8.25;;;5.10;;
20972;SDS011;10645;52.370;13.314;2022-10-31T14:11:19;4.97;;;3.95;;
20972;SDS011;10645;52.370;13.314;2022-10-31T14:13:49;4.43;;;3.65;;
20972;SDS011;10645;52.370;13.314;2022-10-31T14:16:18;5.03;;;4.10;;
20972;SDS011;10645;52.370;13.314;2022-10-31T14:21:37;6.15;;;3.55;;
20972;SDS011;10645;52.370;13.314;2022-10-31T14:29:27;11.30;;;7.65;;
20972;SDS011;10645;52.370;13.314;2022-10-31T14:34:37;8.77;;;5.50;;
20972;SDS011;10645;52.370;13.314;2022-10-31T14:53:20;15.15;;;8.25;;
20972;SDS011;10645;52.370;13.314;2022-10-31T14:55:51;9.52;;;8.68;;
20972;SDS011;10645;52.370;13.314;2022-10-31T14:58:20;12.80;;;8.93;;
20972;SDS011;10645;52.370;13.314;2022-10-31T15:00:51;17.95;;;8.50;;
20972;SDS011;10645;52.370;13.314;2022-10-31T15:03:23;13.05;;;9.63;;
20972;SDS011;10645;52.370;13.314;2022-10-31T15:05:56;16.55;;;10.45;;
20972;SDS011;10645;52.370;13.314;2022-10-31T15:08:27;14.93;;;10.65;;
20972;SDS011;10645;52.370;13.314;2022-10-31T15:10:57;12.65;;;10.00;;
20972;SDS011;10645;52.370;13.314;2022-10-31T15:13:23;13.13;;;11.23;;
20972;SDS011;10645;52.370;13.314;2022-10-31T15:15:50;16.73;;;10.38;;
20972;SDS011;10645;52.370;13.314;2022-10-31T15:18:26;12.65;;;7.65;;
20972;SDS011;10645;52.370;13.314;2022-10-31T15:20:54;10.65;;;9.25;;
20972;SDS011;10645;52.370;13.314;2022-10-31T15:25:50;13.40;;;8.88;;
20972;SDS011;10645;52.370;13.314;2022-10-31T15:28:23;18.92;;;9.57;;
20972;SDS011;10645;52.370;13.314;2022-10-31T15:30:54;11.52;;;10.35;;
20972;SDS011;10645;52.370;13.314;2022-10-31T15:33:29;10.55;;;7.68;;
20972;SDS011;10645;52.370;13.314;2022-10-31T15:35:57;13.95;;;9.43;;
20972;SDS011;10645;52.370;13.314;2022-10-31T15:38:26;10.95;;;9.55;;
20972;SDS011;10645;52.370;13.314;2022-10-31T15:40:54;18.00;;;10.25;;
20972;SDS011;10645;52.370;13.314;2022-10-31T15:43:26;16.13;;;8.73;;
20972;SDS011;10645;52.370;13.314;2022-10-31T15:45:57;14.90;;;9.38;;
20972;SDS011;10645;52.370;13.314;2022-10-31T15:48:25;17.08;;;11.25;;
20972;SDS011;10645;52.370;13.314;2022-10-31T15:50:52;10.63;;;9.57;;
20972;SDS011;10645;52.370;13.314;2022-10-31T15:53:26;13.90;;;10.50;;
20972;SDS011;10645;52.370;13.314;2022-10-31T15:56:05;9.85;;;8.30;;
20972;SDS011;10645;52.370;13.314;2022-10-31T15:58:39;19.73;;;12.10;;
20972;SDS011;10645;52.370;13.314;2022-10-31T16:01:19;27.80;;;10.70;;
20972;SDS011;10645;52.370;13.314;2022-10-31T16:04:00;11.80;;;8.27;;
20972;SDS011;10645;52.370;13.314;2022-10-31T16:06:29;11.60;;;9.90;;
20972;SDS011;10645;52.370;13.314;2022-10-31T16:08:55;8.27;;;7.25;;
20972;SDS011;10645;52.370;13.314;2022-10-31T16:11:33;13.48;;;10.18;;
20972;SDS011;10645;52.370;13.314;2022-10-31T16:14:14;13.57;;;10.35;;
20972;SDS011;10645;52.370;13.314;2022-10-31T16:16:47;13.73;;;11.15;;
20972;SDS011;10645;52.370;13.314;2022-10-31T16:19:21;15.20;;;8.80;;
20972;SDS011;10645;52.370;13.314;2022-10-31T16:21:55;18.67;;;11.30;;
20972;SDS011;10645;52.370;13.314;2022-10-31T16:24:31;18.70;;;11.10;;
20972;SDS011;10645;52.370;13.314;2022-10-31T16:27:07;21.45;;;12.65;;
20972;SDS011;10645;52.370;13.314;2022-10-31T16:29:46;13.75;;;9.93;;
20972;SDS011;10645;52.370;13.314;2022-10-31T16:32:29;17.10;;;11.63;;
20972;SDS011;10645;52.370;13.314;2022-10-31T16:34:59;15.38;;;10.38;;
20972;SDS011;10645;52.370;13.314;2022-10-31T16:37:26;18.38;;;11.88;;
20972;SDS011;10645;52.370;13.314;2022-10-31T16:39:52;19.75;;;10.50;;
20972;SDS011;10645;52.370;13.314;2022-10-31T16:42:18;20.98;;;10.88;;